Skip Navigation Links
NOAA logo - Click to go to the NOAA homepage
NOAA's National Weather Service
Alaska Aviation Weather Unit
  NWS logo - Click to go to the NWS homepage
Left Navbar Graphic     09 AKDT = 17 GMT

   
NOAA is celebrating 200 years of science, service, and stewardship. Visit the NOAA 200th celebration Web site to learn more.
USA.gov is the U.S. Government's official Web portal to all Federal, state and local government Web resources and services.
Facebook
NWS on Facebook

Important Change Regarding the AAWU Web Presence

 

Over the last several months, the AAWU has been working to navigate its webpages to a nationally supported server. Security, as well as other needs, have necessitated the change.  In the process, we have made an effort to enhance the functionality of our website, as well as some of our products. As of June 20, 2017, aawu.arh.noaa.gov will be discontinued. The new AAWU web address is weather.gov/aawu. It is now live and will run in-parallel with the old site until it is discontinued. Please send any feedback or questions regarding the new webpages to nws.ar.aawu.webauthors@noaa.gov.  Thank you for your patience during this time of transition.
AAWU Home :: Display TAF Add Bookmark
METAR PAEH 271155Z AUTO 18005KT 10SM FEW005 00/M01 A2992=

METAR PAEH 271255Z AUTO 00000KT 10SM CLR 00/00 A2992=

PAEH 271322Z AUTO 15002KT 2SM BR SCT002 00/00 A2992=

PAEH 271342Z AUTO 08002KT M1/4SM -RA FG VV002 00/00 A2992=

METAR PAEH 271355Z AUTO 15005KT 3/4SM -RA BCBR VV002 M01/M01 A2992=

PAEH 271403Z AUTO 14004KT 1/2SM -SHRA BCFG OVC002 M01/M01 A2992=

PAEH 271423Z AUTO 13003KT M1/4SM -SHRA FG VV002 00/00 A2992=

METAR PAEH 271455Z AUTO 19007KT M1/4SM -SHRA FG VV002 M01/M01 A2992=

PAEH 271523Z AUTO 18005KT 1/4SM -RA FG VV003 00/00 A2992=

METAR PAEH 271555Z AUTO 17004KT M1/4SM -RA BCFG VV002 00/00 A2992=

PAEH 271603Z AUTO 18005KT M1/4SM -RA FG VV003 00/00 A2992=

PAEH 271623Z AUTO 19003KT 1/4SM FG VV003 00/00 A2992=

PAEH 271643Z AUTO 00000KT M1/4SM -SHRA FG VV002 00/00 A2991=

METAR PAEH 271655Z AUTO 00000KT 1/4SM -SHRA FG VV002 00/00 A2992=

PAEH 271703Z AUTO 19001KT 1/4SM FG VV002 00/00 A2992=


NOAA's National Weather Service
Alaska Aviation Weather Unit
6930 Sand Lake Road
Anchorage, AK 99502-1845
Disclaimer
Credits
Glossary
Privacy Policy
About Us
Career Opportunities
Contact AAWU Internet Services Site last modified: April, 17th 2012